Havana, Cuba
Current Conditions -  °F | °C
As of 1:55 AM on Saturday 25 Oct 2014 (Local Time) from MUHA Reporting Station
Scattered Clouds Scattered Clouds  
Wind Chill: 73°   Ceiling: Unl
Heat Index: 73°   Visibility: 6mi
Dew Point: 68°   Wind: 7mph
Humidity: 83%   Direction: 40°NE
Pressure: 29.88"   Gusts: NA
Location:  23.12°N, 82.39°W
Report Text: MUHA 250555Z 04006KT 9000 SCT020 23/20 Q1012
Loading
Personal Weather Stations






























Interactive Weather Map
Tropical Storm Tracking
New forecast layout! Learn more

10-Day Weather Forecast

Advertisements
Track Severe Weather on mobile